createdAt,value
2023-04-09T00:00:35.353Z,19.88
2023-04-09T00:02:36.929Z,20.13
2023-04-09T00:04:38.374Z,19.67
2023-04-09T00:06:39.878Z,20.30
2023-04-09T00:08:41.478Z,20.67
2023-04-09T00:10:42.854Z,20.63
2023-04-09T00:12:44.279Z,20.20
2023-04-09T00:14:45.691Z,19.33
2023-04-09T00:16:47.072Z,18.45
2023-04-09T00:18:48.557Z,18.33
2023-04-09T00:20:50.390Z,19.13
2023-04-09T00:22:52.280Z,17.45
2023-04-09T00:24:53.788Z,17.50
2023-04-09T00:26:55.591Z,18.02
2023-04-09T00:28:57.178Z,18.05
2023-04-09T00:30:58.562Z,17.30
2023-04-09T00:32:59.994Z,16.95
2023-04-09T00:35:01.850Z,18.85
2023-04-09T00:37:03.290Z,17.65
2023-04-09T00:39:04.736Z,17.85
2023-04-09T00:41:06.214Z,18.60
2023-04-09T00:43:07.602Z,18.20
2023-04-09T00:45:09.328Z,17.20
2023-04-09T00:47:10.732Z,19.35
2023-04-09T00:49:12.260Z,18.73
2023-04-09T00:51:13.624Z,17.58
2023-04-09T00:53:16.164Z,18.55
2023-04-09T00:55:18.558Z,18.05
2023-04-09T00:57:20.277Z,17.08
2023-04-09T00:59:21.769Z,16.45
2023-04-09T01:01:24.129Z,17.23
2023-04-09T01:03:25.853Z,17.25
2023-04-09T01:05:34.283Z,16.80
2023-04-09T01:08:01.593Z,16.75
2023-04-09T01:10:16.279Z,17.08
2023-04-09T01:12:31.424Z,16.38
2023-04-09T01:14:45.764Z,16.98
2023-04-09T01:16:54.422Z,15.82
2023-04-09T01:19:04.263Z,17.02
2023-04-09T01:21:33.579Z,17.80
2023-04-09T01:23:46.759Z,16.30
2023-04-09T01:25:57.114Z,17.00
2023-04-09T01:28:33.070Z,16.58
2023-04-09T01:30:35.262Z,16.77
2023-04-09T01:32:38.836Z,16.50
2023-04-09T01:34:42.522Z,15.57
2023-04-09T01:36:50.208Z,15.80
2023-04-09T01:38:52.695Z,14.98
2023-04-09T01:40:55.873Z,15.27
2023-04-09T01:42:58.932Z,15.23
2023-04-09T01:45:01.534Z,15.35
2023-04-09T01:47:03.723Z,16.38
2023-04-09T01:49:05.828Z,15.15
2023-04-09T01:51:07.258Z,15.00
2023-04-09T01:53:09.073Z,15.63
2023-04-09T01:55:10.473Z,15.70
2023-04-09T01:57:11.865Z,15.82
2023-04-09T01:59:14.372Z,15.48
2023-04-09T02:01:55.463Z,16.25
2023-04-09T02:04:01.135Z,15.80
2023-04-09T02:06:09.192Z,16.15
2023-04-09T02:08:13.459Z,16.38
2023-04-09T02:10:17.261Z,16.45
2023-04-09T02:12:19.160Z,16.05
2023-04-09T02:14:26.544Z,15.32
2023-04-09T02:16:29.055Z,15.63
2023-04-09T02:18:30.972Z,14.73
2023-04-09T02:20:32.372Z,16.25
2023-04-09T02:22:33.802Z,16.00
2023-04-09T02:24:35.251Z,15.13
2023-04-09T02:26:36.648Z,13.98
2023-04-09T02:28:38.169Z,15.13
2023-04-09T02:30:39.568Z,15.68
2023-04-09T02:32:41.010Z,15.43
2023-04-09T02:34:42.471Z,14.10
2023-04-09T02:36:43.844Z,14.35
2023-04-09T02:38:45.491Z,14.77
2023-04-09T02:40:46.896Z,14.13
2023-04-09T02:42:48.304Z,15.00
2023-04-09T02:44:49.692Z,15.38
2023-04-09T02:46:54.428Z,15.25
2023-04-09T02:48:55.827Z,14.13
2023-04-09T02:50:58.458Z,14.57
2023-04-09T02:53:00.079Z,14.75
2023-04-09T02:55:01.734Z,15.20
2023-04-09T02:57:03.261Z,15.57
2023-04-09T02:59:04.614Z,14.30
2023-04-09T03:01:08.510Z,15.75
2023-04-09T03:03:10.251Z,14.90
2023-04-09T03:05:11.910Z,13.95
2023-04-09T03:07:13.344Z,14.60
2023-04-09T03:09:14.757Z,15.48
2023-04-09T03:11:16.166Z,15.18
2023-04-09T03:13:17.599Z,14.45
2023-04-09T03:15:19.055Z,15.55
2023-04-09T03:17:20.570Z,16.83
2023-04-09T03:19:21.953Z,15.13
2023-04-09T03:21:23.347Z,15.15
2023-04-09T03:23:24.714Z,14.55
2023-04-09T03:25:26.108Z,14.85
2023-04-09T03:27:27.608Z,14.27
2023-04-09T03:29:28.993Z,13.40
2023-04-09T03:31:30.980Z,14.05
2023-04-09T03:33:32.406Z,12.70
2023-04-09T03:35:33.812Z,13.57
2023-04-09T03:37:35.826Z,13.85
2023-04-09T03:39:37.229Z,13.55
2023-04-09T03:41:38.625Z,13.05
2023-04-09T03:43:40.030Z,13.45
2023-04-09T03:45:41.415Z,13.40
2023-04-09T03:47:42.825Z,13.60
2023-04-09T03:49:44.221Z,13.18
2023-04-09T03:51:45.733Z,13.55
2023-04-09T03:53:47.144Z,13.52
2023-04-09T03:55:48.497Z,13.20
2023-04-09T03:57:49.867Z,12.48
2023-04-09T03:59:51.292Z,12.57
2023-04-09T04:01:52.779Z,13.90
2023-04-09T04:03:54.398Z,12.55
2023-04-09T04:06:03.678Z,13.63
2023-04-09T04:08:05.204Z,13.48
2023-04-09T04:10:07.188Z,13.60
2023-04-09T04:12:09.245Z,13.65
2023-04-09T04:14:10.640Z,13.55
2023-04-09T04:16:12.050Z,14.93
2023-04-09T04:18:13.472Z,13.48
2023-04-09T04:20:14.969Z,14.23
2023-04-09T04:22:16.470Z,15.48
2023-04-09T04:24:17.874Z,14.60
2023-04-09T04:26:19.447Z,15.00
2023-04-09T04:28:20.846Z,13.98
2023-04-09T04:30:22.527Z,14.65
2023-04-09T04:32:23.969Z,15.77
2023-04-09T04:34:25.548Z,14.73
2023-04-09T04:36:26.979Z,15.80
2023-04-09T04:38:28.363Z,15.73
2023-04-09T04:40:29.791Z,13.90
2023-04-09T04:42:31.221Z,14.88
2023-04-09T04:44:32.607Z,14.73
2023-04-09T04:46:34.022Z,16.27
2023-04-09T04:48:35.430Z,15.52
2023-04-09T04:50:36.790Z,14.60
2023-04-09T04:52:40.277Z,15.45
2023-04-09T04:54:41.753Z,16.30
2023-04-09T04:56:43.275Z,13.35
2023-04-09T04:58:44.868Z,14.60
2023-04-09T05:00:46.905Z,15.32
2023-04-09T05:02:48.431Z,14.27
2023-04-09T05:04:50.113Z,14.88
2023-04-09T05:06:51.563Z,13.63
2023-04-09T05:08:53.115Z,16.42
2023-04-09T05:10:56.144Z,14.05
2023-04-09T05:12:57.605Z,14.52
2023-04-09T05:14:59.158Z,14.50
2023-04-09T05:17:00.684Z,14.32
2023-04-09T05:19:02.193Z,14.93
2023-04-09T05:21:03.729Z,15.10
2023-04-09T05:23:05.163Z,15.13
2023-04-09T05:25:07.329Z,16.13
2023-04-09T05:27:08.762Z,15.25
2023-04-09T05:29:10.270Z,15.85
2023-04-09T05:31:13.401Z,15.23
2023-04-09T05:33:14.987Z,15.88
2023-04-09T05:35:16.402Z,14.43
2023-04-09T05:37:17.830Z,14.65
2023-04-09T05:39:19.219Z,14.88
2023-04-09T05:41:20.598Z,14.85
2023-04-09T05:43:22.228Z,14.80
2023-04-09T05:45:23.689Z,15.20
2023-04-09T05:47:25.163Z,14.73
2023-04-09T05:49:26.536Z,15.07
2023-04-09T05:51:27.943Z,15.35
2023-04-09T05:53:29.426Z,15.18
2023-04-09T05:55:34.115Z,15.45
2023-04-09T05:57:35.478Z,15.38
2023-04-09T05:59:36.881Z,14.40
2023-04-09T06:01:38.294Z,15.45
2023-04-09T06:03:40.060Z,15.05
2023-04-09T06:05:41.653Z,15.73
2023-04-09T06:07:43.044Z,14.82
2023-04-09T06:09:45.002Z,15.10
2023-04-09T06:11:46.416Z,15.65
2023-04-09T06:13:47.870Z,15.68
2023-04-09T06:15:49.322Z,16.05
2023-04-09T06:17:50.898Z,15.95
2023-04-09T06:19:52.328Z,15.43
2023-04-09T06:21:53.712Z,15.68
2023-04-09T06:23:55.203Z,15.70
2023-04-09T06:25:56.582Z,17.45
2023-04-09T06:27:58.012Z,19.00
2023-04-09T06:29:59.390Z,16.35
2023-04-09T06:32:00.798Z,16.83
2023-04-09T06:34:02.229Z,19.65
2023-04-09T06:36:03.883Z,18.80
2023-04-09T06:38:05.396Z,17.52
2023-04-09T06:40:07.953Z,15.55
2023-04-09T06:42:09.361Z,16.65
2023-04-09T06:44:10.739Z,15.20
2023-04-09T06:46:13.492Z,14.95
2023-04-09T06:48:14.873Z,15.80
2023-04-09T06:50:16.552Z,15.13
2023-04-09T06:52:17.940Z,14.35
2023-04-09T06:54:20.132Z,16.08
2023-04-09T06:56:21.536Z,14.90
2023-04-09T06:58:23.012Z,15.43
2023-04-09T07:00:24.420Z,15.02
2023-04-09T07:02:26.377Z,15.30
2023-04-09T07:04:28.119Z,15.77
2023-04-09T07:06:29.676Z,14.90
2023-04-09T07:08:31.158Z,15.75
2023-04-09T07:10:32.649Z,15.82
2023-04-09T07:12:35.482Z,15.70
2023-04-09T07:14:36.976Z,15.75
2023-04-09T07:16:38.505Z,14.55
2023-04-09T07:18:40.171Z,14.77
2023-04-09T07:20:41.588Z,15.82
2023-04-09T07:22:43.007Z,14.85
2023-04-09T07:24:44.366Z,14.38
2023-04-09T07:26:45.760Z,14.23
2023-04-09T07:28:47.314Z,13.85
2023-04-09T07:30:48.677Z,13.43
2023-04-09T07:32:50.506Z,14.00
2023-04-09T07:34:52.903Z,14.55
2023-04-09T07:36:54.300Z,14.75
2023-04-09T07:38:56.147Z,13.30
2023-04-09T07:40:58.389Z,13.63
2023-04-09T07:42:59.806Z,12.95
2023-04-09T07:45:01.253Z,14.57
2023-04-09T07:47:03.918Z,13.52
2023-04-09T07:49:05.840Z,12.50
2023-04-09T07:51:07.249Z,13.52
2023-04-09T07:53:08.621Z,13.50
2023-04-09T07:55:10.096Z,14.60
2023-04-09T07:57:11.569Z,15.13
2023-04-09T07:59:15.253Z,13.98
2023-04-09T08:01:16.981Z,13.23
2023-04-09T08:05:20.868Z,12.95
2023-04-09T08:07:22.360Z,12.32
2023-04-09T08:09:23.821Z,12.20
2023-04-09T08:11:25.933Z,11.75
2023-04-09T08:13:27.421Z,13.10
2023-04-09T08:15:28.931Z,12.55
2023-04-09T08:17:30.812Z,12.63
2023-04-09T08:19:32.333Z,12.80
2023-04-09T08:21:33.982Z,13.23
2023-04-09T08:23:35.375Z,12.85
2023-04-09T08:25:37.806Z,12.60
2023-04-09T08:27:39.682Z,11.60
2023-04-09T08:29:42.562Z,12.35
2023-04-09T08:31:44.277Z,11.90
2023-04-09T08:33:46.149Z,12.45
2023-04-09T08:35:47.537Z,12.23
2023-04-09T08:37:49.176Z,11.82
2023-04-09T08:39:50.902Z,11.95
2023-04-09T08:41:52.397Z,12.18
2023-04-09T08:43:58.819Z,10.77
2023-04-09T08:46:03.123Z,12.93
2023-04-09T08:48:05.667Z,10.45
2023-04-09T08:50:07.501Z,11.63
2023-04-09T08:52:08.946Z,10.55
2023-04-09T08:54:10.421Z,11.23
2023-04-09T08:56:13.764Z,10.98
2023-04-09T08:58:15.114Z,11.90
2023-04-09T09:00:16.527Z,10.55
2023-04-09T09:02:17.956Z,11.40
2023-04-09T09:04:19.718Z,10.98
2023-04-09T09:06:22.449Z,8.35
2023-04-09T09:08:25.500Z,8.30
2023-04-09T09:10:44.325Z,7.78
2023-04-09T09:12:45.731Z,6.57
2023-04-09T09:14:47.150Z,6.50
2023-04-09T09:16:57.839Z,6.28
2023-04-09T09:19:00.313Z,6.32
2023-04-09T09:21:19.424Z,6.07
2023-04-09T09:23:34.784Z,6.57
2023-04-09T09:25:42.593Z,6.22
2023-04-09T09:27:44.061Z,6.30
2023-04-09T09:29:45.498Z,6.05
2023-04-09T09:31:52.582Z,5.45
2023-04-09T09:33:54.173Z,5.75
2023-04-09T09:35:57.605Z,5.20
2023-04-09T09:38:05.260Z,4.95
2023-04-09T09:40:07.824Z,4.32
2023-04-09T09:42:09.275Z,5.57
2023-04-09T09:44:12.813Z,5.13
2023-04-09T09:46:15.581Z,5.50
2023-04-09T09:48:17.075Z,5.20
2023-04-09T09:50:18.960Z,6.80
2023-04-09T09:52:30.178Z,5.75
2023-04-09T09:54:41.019Z,5.72
2023-04-09T09:56:43.940Z,5.55
2023-04-09T09:58:54.730Z,5.32
2023-04-09T10:00:57.831Z,5.75
2023-04-09T10:03:15.986Z,5.25
2023-04-09T10:05:17.563Z,5.85
2023-04-09T10:07:20.945Z,5.32
2023-04-09T10:09:27.750Z,5.95
2023-04-09T10:11:29.266Z,5.15
2023-04-09T10:13:43.596Z,5.80
2023-04-09T10:15:45.891Z,6.63
2023-04-09T10:17:48.027Z,5.35
2023-04-09T10:19:58.445Z,4.80
2023-04-09T10:22:07.951Z,5.80
2023-04-09T10:24:10.381Z,5.53
2023-04-09T10:26:11.784Z,5.75
2023-04-09T10:28:19.432Z,6.00
2023-04-09T10:30:39.072Z,6.57
2023-04-09T10:32:40.556Z,6.00
2023-04-09T10:34:43.783Z,5.50
2023-04-09T10:36:49.565Z,5.80
2023-04-09T10:38:51.479Z,6.18
2023-04-09T10:40:53.319Z,5.95
2023-04-09T10:42:56.062Z,6.40
2023-04-09T10:45:07.725Z,5.78
2023-04-09T10:47:10.713Z,5.78
2023-04-09T10:49:15.330Z,6.20
2023-04-09T10:51:19.798Z,6.00
2023-04-09T10:53:25.669Z,5.70
2023-04-09T10:55:41.478Z,5.25
2023-04-09T10:57:43.016Z,6.13
2023-04-09T10:59:46.697Z,6.07
2023-04-09T11:01:54.664Z,6.22
2023-04-09T11:04:13.702Z,5.75
2023-04-09T11:06:19.976Z,5.60
2023-04-09T11:08:22.142Z,5.57
2023-04-09T11:10:23.679Z,5.95
2023-04-09T11:12:25.065Z,6.30
2023-04-09T11:14:27.316Z,5.75
2023-04-09T11:16:31.843Z,5.47
2023-04-09T11:18:34.957Z,5.60
2023-04-09T11:20:36.761Z,6.03
2023-04-09T11:22:38.398Z,5.63
2023-04-09T11:24:43.764Z,5.97
2023-04-09T11:26:45.878Z,5.65
2023-04-09T11:28:47.366Z,6.15
2023-04-09T11:30:51.256Z,5.95
2023-04-09T11:32:52.734Z,6.05
2023-04-09T11:34:54.147Z,5.80
2023-04-09T11:36:56.874Z,6.00
2023-04-09T11:38:59.108Z,6.05
2023-04-09T11:41:01.742Z,5.32
2023-04-09T11:43:03.185Z,5.50
2023-04-09T11:45:05.163Z,6.30
2023-04-09T11:47:08.745Z,5.95
2023-04-09T11:49:10.383Z,5.88
2023-04-09T11:51:11.902Z,5.38
2023-04-09T11:53:20.624Z,5.70
2023-04-09T11:55:29.510Z,6.45
2023-04-09T11:57:47.243Z,5.78
2023-04-09T11:59:48.651Z,5.32
2023-04-09T12:01:51.363Z,5.32
2023-04-09T12:03:54.497Z,6.28
2023-04-09T12:05:56.322Z,6.05
2023-04-09T12:08:03.129Z,5.78
2023-04-09T12:10:06.473Z,5.88
2023-04-09T12:12:08.880Z,5.65
2023-04-09T12:14:16.085Z,6.18
2023-04-09T12:16:21.266Z,6.10
2023-04-09T12:18:23.464Z,6.20
2023-04-09T12:20:32.754Z,5.65
2023-04-09T12:22:34.192Z,5.65
2023-04-09T12:24:35.771Z,5.75
2023-04-09T12:26:37.180Z,5.97
2023-04-09T12:28:38.572Z,5.47
2023-04-09T12:30:40.425Z,6.07
2023-04-09T12:32:44.651Z,5.55
2023-04-09T12:34:47.379Z,5.90
2023-04-09T12:36:48.780Z,5.07
2023-04-09T12:38:50.550Z,6.43
2023-04-09T12:40:52.139Z,5.68
2023-04-09T12:42:54.086Z,5.50
2023-04-09T12:44:55.494Z,5.90
2023-04-09T12:46:56.850Z,5.88
2023-04-09T12:48:58.396Z,5.40
2023-04-09T12:50:59.773Z,5.72
2023-04-09T12:53:01.285Z,6.20
2023-04-09T12:55:04.202Z,5.25
2023-04-09T12:57:06.368Z,5.32
2023-04-09T12:59:07.769Z,6.68
2023-04-09T13:01:09.253Z,5.55
2023-04-09T13:03:11.717Z,5.80
2023-04-09T13:05:13.420Z,5.50
2023-04-09T13:07:17.290Z,5.45
2023-04-09T13:09:18.740Z,5.45
2023-04-09T13:11:20.358Z,5.75
2023-04-09T13:13:21.945Z,5.50
2023-04-09T13:15:23.471Z,5.57
2023-04-09T13:17:25.049Z,5.68
2023-04-09T13:19:26.423Z,5.60
2023-04-09T13:21:27.873Z,5.32
2023-04-09T13:23:29.380Z,5.50
2023-04-09T13:25:30.812Z,5.35
2023-04-09T13:27:32.255Z,4.90
2023-04-09T13:29:33.664Z,4.95
2023-04-09T13:31:37.988Z,5.32
2023-04-09T13:33:39.386Z,5.50
2023-04-09T13:35:40.827Z,5.05
2023-04-09T13:37:42.282Z,5.30
2023-04-09T13:39:44.716Z,4.97
2023-04-09T13:41:46.149Z,5.32
2023-04-09T13:43:47.522Z,5.13
2023-04-09T13:45:49.760Z,5.22
2023-04-09T13:47:51.284Z,5.35
2023-04-09T13:49:53.123Z,5.20
2023-04-09T13:51:55.668Z,5.93
2023-04-09T13:53:57.611Z,5.90
2023-04-09T13:55:59.021Z,5.85
2023-04-09T13:58:00.387Z,6.07
2023-04-09T14:00:04.445Z,5.93
2023-04-09T14:02:05.988Z,5.07
2023-04-09T14:04:08.119Z,5.50
2023-04-09T14:06:09.970Z,5.40
2023-04-09T14:08:12.041Z,5.25
2023-04-09T14:10:13.456Z,4.68
2023-04-09T14:12:14.826Z,4.85
2023-04-09T14:14:16.648Z,5.13
2023-04-09T14:16:19.608Z,5.32
2023-04-09T14:18:21.338Z,5.38
2023-04-09T14:20:24.504Z,5.25
2023-04-09T14:22:28.577Z,5.32
2023-04-09T14:24:30.094Z,5.13
2023-04-09T14:26:31.761Z,4.85
2023-04-09T14:28:33.162Z,5.88
2023-04-09T14:30:34.579Z,5.00
2023-04-09T14:32:36.176Z,5.05
2023-04-09T14:34:37.607Z,5.20
2023-04-09T14:36:38.987Z,5.20
2023-04-09T14:38:40.380Z,4.85
2023-04-09T14:40:42.194Z,4.80
2023-04-09T14:42:43.602Z,5.00
2023-04-09T14:44:45.305Z,4.60
2023-04-09T14:46:46.785Z,4.70
2023-04-09T14:48:48.229Z,4.47
2023-04-09T14:50:51.572Z,4.90
2023-04-09T14:52:53.181Z,4.68
2023-04-09T14:54:54.554Z,4.55
2023-04-09T14:56:58.180Z,4.30
2023-04-09T14:58:59.939Z,4.95
2023-04-09T15:01:01.396Z,4.45
2023-04-09T15:03:03.959Z,4.78
2023-04-09T15:05:05.970Z,4.75
2023-04-09T15:07:07.397Z,4.85
2023-04-09T15:09:09.022Z,5.00
2023-04-09T15:11:15.592Z,5.22
2023-04-09T15:13:17.022Z,4.75
2023-04-09T15:15:18.402Z,5.20
2023-04-09T15:17:19.910Z,4.43
2023-04-09T15:19:21.362Z,5.18
2023-04-09T15:21:23.134Z,5.43
2023-04-09T15:23:24.559Z,5.13
2023-04-09T15:25:26.155Z,5.85
2023-04-09T15:27:27.596Z,5.07
2023-04-09T15:29:28.999Z,4.72
2023-04-09T15:31:30.790Z,5.00
2023-04-09T15:33:32.475Z,5.50
2023-04-09T15:35:34.953Z,4.60
2023-04-09T15:37:36.389Z,4.75
2023-04-09T15:39:38.076Z,4.03
2023-04-09T15:41:39.481Z,4.05
2023-04-09T15:43:40.842Z,4.30
2023-04-09T15:45:42.273Z,4.15
2023-04-09T15:47:44.738Z,4.25
2023-04-09T15:49:46.243Z,4.40
2023-04-09T15:51:48.198Z,4.70
2023-04-09T15:53:49.669Z,4.30
2023-04-09T15:55:51.198Z,4.40
2023-04-09T15:57:53.033Z,3.80
2023-04-09T15:59:54.452Z,4.13
2023-04-09T16:01:56.108Z,4.47
2023-04-09T16:03:57.602Z,4.47
2023-04-09T16:06:01.529Z,4.10
2023-04-09T16:08:03.456Z,3.75
2023-04-09T16:10:05.296Z,4.25
2023-04-09T16:12:06.954Z,4.07
2023-04-09T16:14:09.210Z,3.90
2023-04-09T16:16:10.606Z,4.22
2023-04-09T16:18:12.075Z,4.10
2023-04-09T16:20:13.548Z,4.35
2023-04-09T16:22:14.959Z,3.90
2023-04-09T16:24:16.399Z,3.95
2023-04-09T16:26:17.810Z,4.13
2023-04-09T16:28:21.879Z,4.28
2023-04-09T16:30:23.366Z,3.78
2023-04-09T16:32:25.361Z,4.40
2023-04-09T16:34:26.830Z,4.18
2023-04-09T16:36:29.466Z,3.75
2023-04-09T16:38:31.236Z,3.78
2023-04-09T16:40:33.015Z,3.90
2023-04-09T16:42:34.608Z,3.72
2023-04-09T16:44:36.189Z,3.55
2023-04-09T16:46:37.616Z,4.15
2023-04-09T16:48:41.669Z,3.75
2023-04-09T16:50:43.141Z,4.18
2023-04-09T16:52:44.749Z,3.80
2023-04-09T16:54:46.204Z,3.80
2023-04-09T16:56:48.732Z,4.22
2023-04-09T16:58:50.240Z,4.32
2023-04-09T17:00:52.166Z,3.90
2023-04-09T17:02:55.547Z,4.38
2023-04-09T17:04:57.590Z,4.40
2023-04-09T17:06:59.330Z,4.63
2023-04-09T17:09:01.433Z,3.90
2023-04-09T17:11:03.132Z,3.95
2023-04-09T17:13:04.616Z,3.78
2023-04-09T17:15:06.553Z,4.20
2023-04-09T17:17:08.705Z,4.07
2023-04-09T17:19:10.663Z,4.15
2023-04-09T17:21:12.544Z,4.07
2023-04-09T17:23:14.637Z,4.45
2023-04-09T17:25:16.355Z,4.50
2023-04-09T17:27:19.587Z,3.85
2023-04-09T17:29:21.299Z,3.63
2023-04-09T17:31:24.329Z,4.00
2023-04-09T17:33:26.324Z,4.00
2023-04-09T17:35:27.752Z,3.95
2023-04-09T17:37:29.194Z,3.80
2023-04-09T17:39:31.140Z,3.90
2023-04-09T17:41:32.610Z,4.00
2023-04-09T17:43:34.000Z,4.38
2023-04-09T17:45:35.612Z,4.25
2023-04-09T17:47:37.209Z,4.20
2023-04-09T17:49:39.250Z,4.22
2023-04-09T17:51:40.677Z,3.35
2023-04-09T17:53:42.364Z,4.35
2023-04-09T17:55:50.897Z,3.78
2023-04-09T17:57:52.434Z,3.78
2023-04-09T17:59:53.862Z,3.95
2023-04-09T18:01:56.632Z,3.95
2023-04-09T18:03:59.266Z,3.88
2023-04-09T18:06:00.951Z,4.05
2023-04-09T18:08:02.484Z,3.63
2023-04-09T18:10:04.549Z,3.90
2023-04-09T18:12:06.226Z,4.20
2023-04-09T18:14:08.026Z,4.28
2023-04-09T18:16:10.682Z,4.30
2023-04-09T18:18:12.191Z,4.07
2023-04-09T18:20:15.504Z,4.18
2023-04-09T18:22:17.121Z,4.78
2023-04-09T18:24:18.573Z,4.10
2023-04-09T18:26:20.046Z,4.70
2023-04-09T18:28:21.736Z,4.70
2023-04-09T18:30:23.223Z,4.30
2023-04-09T18:32:25.449Z,4.53
2023-04-09T18:34:26.988Z,4.85
2023-04-09T18:36:28.984Z,4.78
2023-04-09T18:38:30.552Z,5.35
2023-04-09T18:40:32.047Z,5.90
2023-04-09T18:42:33.565Z,5.72
2023-04-09T18:44:36.254Z,4.95
2023-04-09T18:46:37.784Z,5.43
2023-04-09T18:48:39.518Z,5.82
2023-04-09T18:50:41.389Z,5.60
2023-04-09T18:52:42.825Z,5.25
2023-04-09T18:54:44.303Z,5.80
2023-04-09T18:56:46.642Z,6.47
2023-04-09T18:58:48.859Z,6.20
2023-04-09T19:00:52.855Z,6.93
2023-04-09T19:02:54.729Z,7.32
2023-04-09T19:04:56.409Z,6.88
2023-04-09T19:06:58.078Z,7.55
2023-04-09T19:08:59.569Z,7.38
2023-04-09T19:11:01.006Z,7.57
2023-04-09T19:13:03.035Z,7.57
2023-04-09T19:15:06.078Z,7.88
2023-04-09T19:17:07.734Z,8.23
2023-04-09T19:19:09.454Z,7.72
2023-04-09T19:21:10.945Z,8.18
2023-04-09T19:23:12.359Z,7.93
2023-04-09T19:25:14.699Z,8.52
2023-04-09T19:27:18.034Z,8.77
2023-04-09T19:29:19.944Z,9.35
2023-04-09T19:31:22.269Z,10.50
2023-04-09T19:33:25.345Z,11.90
2023-04-09T19:35:26.775Z,12.98
2023-04-09T19:37:30.191Z,12.32
2023-04-09T19:39:31.679Z,11.15
2023-04-09T19:41:33.162Z,9.18
2023-04-09T19:43:39.295Z,7.82
2023-04-09T19:45:42.625Z,6.90
2023-04-09T19:47:44.106Z,6.72
2023-04-09T19:49:45.877Z,5.75
2023-04-09T19:51:47.651Z,5.65
2023-04-09T19:53:49.374Z,5.88
2023-04-09T19:55:51.551Z,5.65
2023-04-09T19:57:53.115Z,6.57
2023-04-09T19:59:55.077Z,6.82
2023-04-09T20:01:57.099Z,7.70
2023-04-09T20:03:58.755Z,9.70
2023-04-09T20:06:00.417Z,12.85
2023-04-09T20:08:01.842Z,12.52
2023-04-09T20:10:03.774Z,13.63
2023-04-09T20:12:06.966Z,13.63
2023-04-09T20:14:08.576Z,13.32
2023-04-09T20:16:10.315Z,13.60
2023-04-09T20:18:12.308Z,12.73
2023-04-09T20:20:14.365Z,12.25
2023-04-09T20:22:16.266Z,11.02
2023-04-09T20:24:17.951Z,10.65
2023-04-09T20:26:19.367Z,11.65
2023-04-09T20:28:21.028Z,11.60
2023-04-09T20:30:22.694Z,12.43
2023-04-09T20:32:24.446Z,11.27
2023-04-09T20:34:29.362Z,11.02
2023-04-09T20:36:30.981Z,12.02
2023-04-09T20:38:32.696Z,11.48
2023-04-09T20:40:36.999Z,11.60
2023-04-09T20:42:41.796Z,11.80
2023-04-09T20:44:43.390Z,10.98
2023-04-09T20:46:44.966Z,10.70
2023-04-09T20:48:46.535Z,10.77
2023-04-09T20:50:48.013Z,10.95
2023-04-09T20:52:49.721Z,10.25
2023-04-09T20:54:51.611Z,9.88
2023-04-09T20:56:53.346Z,10.38
2023-04-09T20:58:55.087Z,10.27
2023-04-09T21:01:08.322Z,9.73
2023-04-09T21:03:11.746Z,9.43
2023-04-09T21:05:22.464Z,9.75
2023-04-09T21:07:25.912Z,10.93
2023-04-09T21:09:27.417Z,10.18
2023-04-09T21:11:29.349Z,10.80
2023-04-09T21:13:35.787Z,10.95
2023-04-09T21:15:48.745Z,10.82
2023-04-09T21:17:50.276Z,12.40
2023-04-09T21:19:53.170Z,14.15
2023-04-09T21:21:54.721Z,14.23
2023-04-09T21:23:56.114Z,14.50
2023-04-09T21:25:57.581Z,15.85
2023-04-09T21:27:59.296Z,15.70
2023-04-09T21:30:00.719Z,16.83
2023-04-09T21:32:02.506Z,16.30
2023-04-09T21:34:04.529Z,16.08
2023-04-09T21:36:07.780Z,16.77
2023-04-09T21:38:09.468Z,16.70
2023-04-09T21:40:11.053Z,16.02
2023-04-09T21:42:12.565Z,17.92
2023-04-09T21:44:14.329Z,17.00
2023-04-09T21:46:16.106Z,16.58
2023-04-09T21:48:17.650Z,17.77
2023-04-09T21:50:19.559Z,17.33
2023-04-09T21:52:21.004Z,17.98
2023-04-09T21:54:22.501Z,18.70
2023-04-09T21:56:23.906Z,17.90
2023-04-09T21:58:25.316Z,18.67
2023-04-09T22:00:27.572Z,18.67
2023-04-09T22:02:29.112Z,19.13
2023-04-09T22:04:30.923Z,19.52
2023-04-09T22:06:32.500Z,19.40
2023-04-09T22:08:38.491Z,18.67
2023-04-09T22:10:47.433Z,20.90
2023-04-09T22:12:49.905Z,19.30
2023-04-09T22:14:52.207Z,20.83
2023-04-09T22:16:54.924Z,20.08
2023-04-09T22:18:56.888Z,18.67
2023-04-09T22:20:58.727Z,20.17
2023-04-09T22:23:00.162Z,19.95
2023-04-09T22:25:01.754Z,18.98
2023-04-09T22:27:03.216Z,19.48
2023-04-09T22:29:06.838Z,18.95
2023-04-09T22:31:08.568Z,19.23
2023-04-09T22:33:10.619Z,20.60
2023-04-09T22:35:17.833Z,21.25
2023-04-09T22:37:19.208Z,21.17
2023-04-09T22:39:21.580Z,21.48
2023-04-09T22:41:23.047Z,21.80
2023-04-09T22:43:24.439Z,24.80
2023-04-09T22:45:27.770Z,26.85
2023-04-09T22:47:29.435Z,23.95
2023-04-09T22:49:31.100Z,25.70
2023-04-09T22:51:34.400Z,25.80
2023-04-09T22:53:35.877Z,25.90
2023-04-09T22:55:38.175Z,28.08
2023-04-09T22:57:42.667Z,30.42
2023-04-09T22:59:44.231Z,29.95
2023-04-09T23:01:45.748Z,30.05
2023-04-09T23:03:50.719Z,32.22
2023-04-09T23:05:52.223Z,31.15
2023-04-09T23:07:53.676Z,31.52
2023-04-09T23:09:55.239Z,32.80
2023-04-09T23:11:57.066Z,31.83
2023-04-09T23:13:58.524Z,31.05
2023-04-09T23:15:59.920Z,31.42
2023-04-09T23:18:01.557Z,31.48
2023-04-09T23:20:03.337Z,31.73
2023-04-09T23:22:05.432Z,31.88
2023-04-09T23:24:06.814Z,31.67
2023-04-09T23:26:08.281Z,31.05
2023-04-09T23:28:09.667Z,31.65
2023-04-09T23:30:11.581Z,33.20
2023-04-09T23:32:12.950Z,34.28
2023-04-09T23:34:14.452Z,35.45
2023-04-09T23:36:16.011Z,36.20
2023-04-09T23:38:17.504Z,38.95
2023-04-09T23:40:18.990Z,37.80
2023-04-09T23:42:20.692Z,39.85
2023-04-09T23:44:22.081Z,41.17
2023-04-09T23:46:23.569Z,42.83
2023-04-09T23:48:24.944Z,40.97
2023-04-09T23:50:28.573Z,41.33
2023-04-09T23:52:31.005Z,43.97
2023-04-09T23:54:32.649Z,46.25
2023-04-09T23:56:34.085Z,48.28
2023-04-09T23:58:35.612Z,52.22
